メインページ
METAR-TAF:

METAR-TAF

空港 :

Lloydminster, アルバータ州, カナダ

緯度: 53-19N, 経度: 110-04W, 海抜: 665m

現時点の気象観測

当レポートは22分前の19:00(UTC)に作成
の風 11kt、最大19ktの突風を伴う、東/南東からの間で変化する
気温 23°C
湿度 47%
気圧 1010 hPa
視程: 24.1km
高度5000ftの雲はほとんどない
高度9500ftの雲は散在している
高度28000ftの雲は散在している

METAR: CYLL 181900Z 17011G19KT 110V190 15SM FEW050 SCT095 SCT280 23/11 A2983 RMK CU1AC2CI1 SLP106 DENSITY ALT 3800FT

時間: 13:22 (19:22 UTC)

予報

当レポートは1時間32分前の17:50(UTC)に作成
予報は18日の 18時(UTC)から 19日の 06時(UTC)まで有効
南東の風 12kt、最大22ktの突風を伴う
視程: 10km
高度5000ftの雲は散在している
18日の 2000時(UTC)から
南/南東の風 10kt
視程: 10km
高度7000ftの千切れ雲あり
18日の 20時(UTC)から 19日の 03時(UTC)まで一時的に
視程: 10km
高度5000ftの千切れ雲あり, 積乱雲.
弱いにわか雨, 近辺で激しい雷雨
18日の 22時(UTC)から 18日の 24時(UTC)まで徐々に
北西の風 10kt
19日の 0500時(UTC)から
北西の風 6kt
視程: 10km
高度7000ftの雲はほとんどない
高度20000ftの千切れ雲あり

TAF: CYLL 181750Z 1818/1906 14012G22KT P6SM SCT050 FM182000 16010KT P6SM BKN070 TEMPO 1820/1903 P6SM -SHRA VCTS BKN050CB BECMG 1822/1824 31010KT FM190500 31006KT P6SM FEW070 BKN200 RMK NXT FCST BY 190000Z

4,000以上の空港の気象観測と天気予報(METAR報とTAF報)

利用可能な観測所は地図上に黄色い丸と赤い丸で示す。

丸の上にカーソルを重ねると観測所名を参照できる。

次にクリックすると気象観測と天気予報を参照できる。

マップの切り替え:黒色「×」印の緑ボタンをクリックして拡大、「-」印の緑ボタンをクリックして縮小、緑色の三角印をクリックして隣りの地図に切り替え


METAR-TAF: